Time;durP1;ratioP1;P1;durP2;ratioP2;P2;SDS_P1;SDS_P2;PMS_P1;PMS_P2;Temp;Humidity;BMP_temperature;BMP_pressure;BME280_temperature;BME280_humidity;BME280_pressure;Samples;Min_cycle;Max_cycle;Signal;HPM_P1;HPM_P2
2022/02/23 00:02:18;;;;;;;3.30;0.90;;;7.90;64.70;;;;;;5013669;28;20223;-66
2022/02/23 00:04:45;;;;;;;5.03;1.73;;;7.90;64.30;;;;;;5013079;28;20281;-69
2022/02/23 00:07:12;;;;;;;2.65;1.05;;;7.90;64.30;;;;;;5013254;28;20269;-71
2022/02/23 00:09:38;;;;;;;2.88;0.93;;;7.90;64.30;;;;;;5013269;28;20581;-67
2022/02/23 00:12:06;;;;;;;3.58;1.02;;;7.90;64.70;;;;;;5013354;28;20245;-67
2022/02/23 00:14:33;;;;;;;1.85;0.80;;;7.90;64.40;;;;;;5013075;28;20254;-67
2022/02/23 00:17:01;;;;;;;2.15;0.65;;;7.90;64.30;;;;;;5013150;28;20528;-68
2022/02/23 00:19:28;;;;;;;2.55;1.02;;;8.00;64.50;;;;;;5013214;28;20250;-68
2022/02/23 00:21:55;;;;;;;3.83;1.00;;;8.00;64.70;;;;;;5012508;28;20534;-68
2022/02/23 00:24:22;;;;;;;2.50;0.82;;;8.00;65.00;;;;;;5012955;28;20280;-68
2022/02/23 00:26:49;;;;;;;2.72;0.95;;;8.00;65.20;;;;;;5012924;28;20219;-67
2022/02/23 00:29:16;;;;;;;3.00;1.10;;;8.00;65.40;;;;;;5012823;28;20226;-67
2022/02/23 00:31:43;;;;;;;1.70;0.70;;;8.00;65.60;;;;;;5012860;28;20709;-68
2022/02/23 00:34:16;;;;;;;2.10;0.70;;;8.10;65.50;;;;;;5013063;28;20191;-68
2022/02/23 00:36:43;;;;;;;2.10;1.00;;;8.10;65.70;;;;;;5012616;28;20187;-67
2022/02/23 00:39:10;;;;;;;3.55;0.80;;;8.10;65.60;;;;;;5012209;28;20188;-68
2022/02/23 00:41:37;;;;;;;1.80;0.80;;;8.10;65.70;;;;;;5012926;28;20262;-67
2022/02/23 00:44:05;;;;;;;3.05;0.90;;;8.20;66.20;;;;;;5012596;28;20191;-68
2022/02/23 00:46:32;;;;;;;2.05;1.00;;;8.20;67.10;;;;;;5012822;28;20309;-67
2022/02/23 00:48:58;;;;;;;1.80;0.85;;;8.10;68.90;;;;;;5012973;28;20230;-68
2022/02/23 00:51:27;;;;;;;5.95;1.20;;;8.10;69.60;;;;;;5012800;28;20195;-68
2022/02/23 00:53:54;;;;;;;1.52;0.60;;;8.10;69.80;;;;;;5012868;28;20631;-69
2022/02/23 00:56:20;;;;;;;4.25;1.17;;;8.10;69.90;;;;;;5012921;28;20235;-67
2022/02/23 00:58:47;;;;;;;1.90;0.80;;;8.10;70.60;;;;;;5012120;28;20277;-67
2022/02/23 01:01:14;;;;;;;2.05;1.00;;;8.10;70.30;;;;;;5012568;28;20246;-67
2022/02/23 01:03:41;;;;;;;3.25;0.93;;;8.00;70.80;;;;;;5012477;28;20269;-67
2022/02/23 01:06:08;;;;;;;4.05;1.05;;;8.10;70.70;;;;;;5012268;28;20247;-67
2022/02/23 01:08:37;;;;;;;2.53;1.10;;;8.00;70.70;;;;;;5012313;28;20241;-67
2022/02/23 01:11:04;;;;;;;2.25;0.65;;;8.00;70.80;;;;;;5012509;28;20234;-68
2022/02/23 01:13:31;;;;;;;2.70;0.90;;;8.00;70.80;;;;;;5012453;28;20626;-68
2022/02/23 01:15:58;;;;;;;2.45;0.80;;;8.10;70.80;;;;;;5012501;28;20192;-68
2022/02/23 01:18:25;;;;;;;2.22;1.00;;;8.10;70.90;;;;;;5012026;28;20270;-68
2022/02/23 01:20:52;;;;;;;2.40;0.90;;;8.10;70.80;;;;;;5012629;28;20240;-67
2022/02/23 01:23:19;;;;;;;2.97;1.25;;;8.10;71.30;;;;;;5012447;28;20223;-68
2022/02/23 01:25:48;;;;;;;2.90;0.93;;;8.10;71.40;;;;;;5012068;28;20316;-68
2022/02/23 01:28:15;;;;;;;2.95;1.20;;;8.00;71.70;;;;;;5012109;28;20235;-67
2022/02/23 01:30:41;;;;;;;3.58;0.93;;;8.00;72.10;;;;;;5012350;28;20615;-67
2022/02/23 01:33:08;;;;;;;2.40;1.20;;;8.00;72.90;;;;;;5012658;28;20268;-67
2022/02/23 01:35:35;;;;;;;2.38;1.20;;;8.10;74.10;;;;;;5012660;28;20565;-67
2022/02/23 01:38:02;;;;;;;2.83;1.13;;;8.10;76.10;;;;;;5012935;28;20245;-67
2022/02/23 01:40:29;;;;;;;7.43;3.72;;;8.00;76.90;;;;;;5012765;28;20234;-67
2022/02/23 01:42:57;;;;;;;22.40;12.40;;;8.00;77.30;;;;;;5012551;28;20246;-67
2022/02/23 01:45:24;;;;;;;9.70;6.20;;;8.00;77.70;;;;;;5012380;28;20234;-68
2022/02/23 01:47:51;;;;;;;4.43;0.90;;;8.00;77.50;;;;;;5012816;28;20227;-67
2022/02/23 01:50:18;;;;;;;1.90;1.10;;;8.00;77.70;;;;;;5016167;28;20273;-67
2022/02/23 01:52:46;;;;;;;2.25;1.17;;;7.90;78.10;;;;;;5016641;28;20231;-67
2022/02/23 01:55:14;;;;;;;2.15;1.23;;;7.90;78.20;;;;;;5016113;28;20227;-67
2022/02/23 01:57:41;;;;;;;1.80;0.77;;;7.90;78.40;;;;;;5016156;28;20223;-67
2022/02/23 02:00:13;;;;;;;2.90;0.70;;;7.90;78.40;;;;;;5016600;28;20577;-68
2022/02/23 02:02:40;;;;;;;3.13;1.30;;;7.90;78.50;;;;;;5016393;28;20192;-69
2022/02/23 02:05:08;;;;;;;1.80;0.70;;;8.00;78.60;;;;;;5016300;28;20219;-67
2022/02/23 02:07:35;;;;;;;1.90;0.60;;;7.90;78.70;;;;;;5015734;28;20219;-67
2022/02/23 02:10:04;;;;;;;5.55;0.80;;;7.90;79.30;;;;;;5016118;28;20188;-68
2022/02/23 02:12:31;;;;;;;2.50;0.80;;;7.90;79.70;;;;;;5015999;28;20254;-67
2022/02/23 02:14:59;;;;;;;2.10;0.82;;;7.90;80.10;;;;;;5016212;28;20689;-67
2022/02/23 02:17:28;;;;;;;1.70;0.75;;;7.80;80.20;;;;;;5015970;28;20622;-69
2022/02/23 02:19:55;;;;;;;2.42;0.75;;;7.80;80.20;;;;;;5016195;28;20191;-67
2022/02/23 02:22:27;;;;;;;2.78;1.30;;;7.80;80.10;;;;;;5016149;28;20527;-67
2022/02/23 02:24:55;;;;;;;2.33;1.10;;;7.80;80.00;;;;;;5015795;28;20274;-68
2022/02/23 02:27:23;;;;;;;2.33;0.70;;;7.80;80.20;;;;;;5015896;28;20218;-67
2022/02/23 02:29:50;;;;;;;1.85;0.80;;;7.90;79.60;;;;;;5015888;28;20265;-67
2022/02/23 02:32:18;;;;;;;1.70;0.70;;;7.90;79.60;;;;;;5015904;28;20644;-67
2022/02/23 02:34:45;;;;;;;1.73;0.70;;;7.80;79.40;;;;;;5015614;28;20234;-67
2022/02/23 02:37:13;;;;;;;2.17;0.80;;;7.80;79.60;;;;;;5015913;28;20187;-67
2022/02/23 02:39:42;;;;;;;2.63;1.00;;;7.80;79.60;;;;;;5015678;28;20203;-68
2022/02/23 02:42:09;;;;;;;1.98;0.70;;;7.80;79.80;;;;;;5015593;28;20592;-67
2022/02/23 02:44:37;;;;;;;1.75;0.80;;;7.80;79.50;;;;;;5015287;28;20206;-67
2022/02/23 02:47:05;;;;;;;2.08;1.02;;;7.80;79.80;;;;;;5015432;28;20255;-68
2022/02/23 02:49:31;;;;;;;2.00;0.80;;;7.80;79.50;;;;;;5015355;28;20242;-68
2022/02/23 02:51:58;;;;;;;2.10;1.00;;;7.80;79.60;;;;;;5015290;28;20227;-68
2022/02/23 02:54:26;;;;;;;2.55;0.77;;;7.80;79.80;;;;;;5015331;28;20188;-68
2022/02/23 02:56:54;;;;;;;1.83;1.02;;;7.80;79.50;;;;;;5015189;28;20238;-67
2022/02/23 02:59:21;;;;;;;4.55;0.73;;;7.80;79.60;;;;;;5014715;28;20188;-67
2022/02/23 03:01:48;;;;;;;3.17;1.55;;;7.80;79.10;;;;;;5014399;28;20223;-67
2022/02/23 03:04:16;;;;;;;3.45;0.90;;;7.80;79.00;;;;;;5015033;28;20277;-67
2022/02/23 03:06:43;;;;;;;3.15;1.30;;;7.80;78.90;;;;;;5014615;28;20732;-68
2022/02/23 03:09:10;;;;;;;1.60;0.60;;;7.80;79.10;;;;;;5014934;28;20238;-68
2022/02/23 03:11:37;;;;;;;2.55;1.13;;;7.80;79.20;;;;;;5015156;28;20270;-67
2022/02/23 03:14:05;;;;;;;4.75;0.90;;;7.80;78.80;;;;;;5014572;28;20259;-67
2022/02/23 03:16:32;;;;;;;1.85;0.60;;;7.80;78.80;;;;;;5014805;28;20183;-67
2022/02/23 03:18:59;;;;;;;2.15;0.93;;;7.80;79.00;;;;;;5014629;28;20510;-68
2022/02/23 03:21:26;;;;;;;1.48;0.70;;;7.80;78.90;;;;;;5014739;28;20223;-67
2022/02/23 03:23:53;;;;;;;5.60;0.77;;;7.80;78.70;;;;;;5014677;28;20184;-68
2022/02/23 03:26:20;;;;;;;1.98;0.70;;;7.80;78.50;;;;;;5014596;28;20251;-67
2022/02/23 03:28:47;;;;;;;3.63;0.90;;;7.90;78.10;;;;;;5013937;28;20191;-67
2022/02/23 03:31:15;;;;;;;2.17;0.95;;;7.90;78.10;;;;;;5014530;28;20615;-68
2022/02/23 03:33:45;;;;;;;1.80;0.60;;;7.90;78.40;;;;;;5014297;28;20228;-68
2022/02/23 03:36:13;;;;;;;2.42;0.63;;;7.90;78.90;;;;;;5014268;28;20199;-67
2022/02/23 03:38:41;;;;;;;2.10;0.60;;;7.90;79.20;;;;;;5014435;28;20215;-68
2022/02/23 03:41:08;;;;;;;2.13;0.77;;;7.90;79.30;;;;;;5014502;28;20188;-67
2022/02/23 03:43:35;;;;;;;3.78;0.70;;;7.90;79.30;;;;;;5014375;28;20194;-68
2022/02/23 03:46:02;;;;;;;2.92;0.70;;;7.90;79.80;;;;;;5014278;28;20250;-68
2022/02/23 03:48:31;;;;;;;2.65;0.95;;;7.80;80.80;;;;;;5014370;28;20258;-67
2022/02/23 03:50:58;;;;;;;2.13;0.85;;;7.80;82.00;;;;;;5014267;28;20327;-67
2022/02/23 03:53:25;;;;;;;2.55;0.82;;;7.80;82.70;;;;;;5014558;28;20198;-67
2022/02/23 03:55:52;;;;;;;1.63;0.70;;;7.80;83.00;;;;;;5014607;28;20704;-68
2022/02/23 03:58:19;;;;;;;3.00;0.82;;;7.80;84.20;;;;;;5014294;28;20246;-67
2022/02/23 04:00:46;;;;;;;2.97;0.80;;;7.80;82.90;;;;;;5014471;28;20639;-68
2022/02/23 04:03:13;;;;;;;5.28;0.73;;;7.80;83.00;;;;;;5014652;28;20191;-68
2022/02/23 04:05:41;;;;;;;5.00;1.05;;;7.80;82.80;;;;;;5014385;28;20246;-67
2022/02/23 04:08:08;;;;;;;4.20;1.15;;;7.80;83.10;;;;;;5014542;28;20326;-68
2022/02/23 04:10:35;;;;;;;2.25;0.80;;;7.80;83.50;;;;;;5014299;28;20199;-69
2022/02/23 04:13:03;;;;;;;1.77;0.70;;;7.80;83.50;;;;;;5014108;28;20220;-67
2022/02/23 04:15:30;;;;;;;3.25;0.98;;;7.80;83.60;;;;;;5014149;28;20253;-68
2022/02/23 04:17:57;;;;;;;1.80;0.80;;;7.80;83.50;;;;;;5014435;28;20248;-67
2022/02/23 04:20:24;;;;;;;1.88;0.70;;;7.80;83.70;;;;;;5014110;28;20223;-67
2022/02/23 04:22:52;;;;;;;1.70;0.63;;;7.80;83.70;;;;;;5014242;28;20587;-67
2022/02/23 04:25:19;;;;;;;2.42;1.00;;;7.80;83.40;;;;;;5013815;28;20234;-67
2022/02/23 04:27:46;;;;;;;1.98;0.80;;;7.80;83.70;;;;;;5014172;28;20273;-67
2022/02/23 04:30:13;;;;;;;1.40;0.60;;;7.80;84.00;;;;;;5013999;28;20370;-68
2022/02/23 04:32:40;;;;;;;2.08;0.90;;;7.80;84.00;;;;;;5014003;28;20184;-67
2022/02/23 04:35:08;;;;;;;2.40;0.80;;;7.80;84.00;;;;;;5013866;28;20305;-67
2022/02/23 04:37:35;;;;;;;2.17;0.70;;;7.80;84.00;;;;;;5013934;28;20191;-67
2022/02/23 04:40:04;;;;;;;3.28;0.63;;;7.80;84.10;;;;;;5013841;28;20247;-67
2022/02/23 04:42:31;;;;;;;1.90;0.60;;;7.80;84.40;;;;;;5013823;28;20187;-67
2022/02/23 04:45:01;;;;;;;2.15;0.63;;;7.80;84.20;;;;;;5013727;28;20250;-68
2022/02/23 04:47:29;;;;;;;2.13;0.65;;;7.80;84.40;;;;;;5013759;28;20226;-68
2022/02/23 04:49:56;;;;;;;3.67;0.70;;;7.90;84.90;;;;;;5013469;28;20191;-66
2022/02/23 04:52:25;;;;;;;1.98;0.70;;;7.90;84.10;;;;;;5013792;28;20191;-67
2022/02/23 04:54:53;;;;;;;1.50;0.60;;;7.70;80.20;;;;;;5013758;28;20197;-67
2022/02/23 04:57:22;;;;;;;3.85;1.33;;;7.60;78.30;;;;;;5013619;28;20299;-66
2022/02/23 04:59:49;;;;;;;1.73;0.70;;;7.40;76.50;;;;;;5013587;28;20188;-67
2022/02/23 05:02:16;;;;;;;1.38;0.50;;;7.20;76.60;;;;;;5013277;28;20195;-67
2022/02/23 05:04:42;;;;;;;1.77;0.60;;;7.00;75.10;;;;;;5013473;28;20223;-67
2022/02/23 05:07:09;;;;;;;2.67;0.70;;;6.90;75.80;;;;;;5013476;28;20277;-67
2022/02/23 05:09:37;;;;;;;1.80;0.60;;;6.80;76.20;;;;;;5013485;28;20187;-67
2022/02/23 05:12:06;;;;;;;2.35;0.70;;;6.70;75.40;;;;;;5013334;28;20187;-68
2022/02/23 05:14:35;;;;;;;1.85;0.95;;;6.60;76.20;;;;;;5012628;28;20223;-68
2022/02/23 05:17:03;;;;;;;5.30;0.93;;;6.50;76.40;;;;;;5013109;28;20261;-67
2022/02/23 05:19:31;;;;;;;1.98;0.70;;;6.50;77.70;;;;;;5013321;28;20242;-67
2022/02/23 05:21:58;;;;;;;2.00;0.80;;;6.40;78.30;;;;;;5013151;28;20196;-67
2022/02/23 05:24:25;;;;;;;1.90;0.60;;;6.40;78.80;;;;;;5012483;28;20192;-67
2022/02/23 05:26:53;;;;;;;4.95;0.73;;;6.30;79.20;;;;;;5013238;28;20211;-67
2022/02/23 05:29:20;;;;;;;1.70;0.80;;;6.20;79.50;;;;;;5013243;28;20187;-68
2022/02/23 05:31:48;;;;;;;2.30;0.85;;;6.30;80.10;;;;;;5012885;28;20188;-66
2022/02/23 05:34:15;;;;;;;3.80;0.90;;;6.20;80.50;;;;;;5013224;28;20787;-67
2022/02/23 05:37:04;;;;;;;2.90;0.70;;;6.20;80.70;;;;;;5013187;28;20258;-67
2022/02/23 05:39:31;;;;;;;3.38;1.48;;;6.20;80.50;;;;;;5013115;28;20619;-67
2022/02/23 05:41:58;;;;;;;2.85;0.77;;;6.20;80.20;;;;;;5013076;28;20230;-67
2022/02/23 05:44:25;;;;;;;1.95;0.90;;;6.10;80.50;;;;;;5013028;28;20211;-68
2022/02/23 05:46:54;;;;;;;4.90;1.00;;;6.10;81.40;;;;;;5014679;28;20287;-67
2022/02/23 05:52:20;;;;;;;4.72;1.15;;;6.00;81.30;;;;;;5029607;28;20190;-68
2022/02/23 05:54:48;;;;;;;4.07;1.85;;;6.00;81.80;;;;;;5025440;28;20226;-67
2022/02/23 05:57:16;;;;;;;3.40;1.85;;;5.90;81.80;;;;;;5030432;28;20869;-67
2022/02/23 05:59:43;;;;;;;3.92;2.33;;;5.90;82.30;;;;;;5030776;28;20195;-66
2022/02/23 06:02:14;;;;;;;2.63;1.50;;;5.90;82.60;;;;;;5025710;28;20230;-67
2022/02/23 06:04:41;;;;;;;4.18;1.90;;;5.90;83.30;;;;;;5030363;28;20191;-67
2022/02/23 06:07:08;;;;;;;5.32;1.67;;;5.90;83.00;;;;;;5026657;28;20226;-67
2022/02/23 06:09:36;;;;;;;3.45;1.50;;;5.90;82.60;;;;;;5029215;28;20190;-67
2022/02/23 06:12:03;;;;;;;3.47;1.50;;;5.80;82.30;;;;;;5024184;28;20278;-67
2022/02/23 06:14:31;;;;;;;4.28;1.35;;;5.80;83.00;;;;;;5028393;28;20234;-67
2022/02/23 06:16:58;;;;;;;2.95;0.93;;;5.70;83.20;;;;;;5028125;28;20278;-67
2022/02/23 06:19:27;;;;;;;3.40;1.45;;;5.70;84.30;;;;;;5027956;28;20638;-71
2022/02/23 06:21:54;;;;;;;4.18;1.63;;;5.60;85.30;;;;;;5025985;28;20275;-67
2022/02/23 06:24:22;;;;;;;3.45;1.70;;;5.60;86.10;;;;;;5028915;28;20696;-67
2022/02/23 06:26:49;;;;;;;3.45;1.60;;;5.60;86.20;;;;;;5021829;28;20190;-67
2022/02/23 06:29:17;;;;;;;4.82;2.55;;;5.60;85.30;;;;;;5028934;28;20187;-67
2022/02/23 06:31:57;;;;;;;3.60;2.10;;;5.60;85.00;;;;;;5027156;28;20191;-67
2022/02/23 06:34:26;;;;;;;6.13;3.58;;;5.50;85.40;;;;;;5025105;28;20191;-67
2022/02/23 06:36:53;;;;;;;4.47;2.08;;;5.50;85.50;;;;;;5030861;28;20588;-67
2022/02/23 06:39:20;;;;;;;3.50;2.00;;;5.50;85.70;;;;;;5032619;28;20187;-68
2022/02/23 06:41:48;;;;;;;3.75;1.75;;;5.50;85.70;;;;;;5027368;28;20490;-67
2022/02/23 06:44:19;;;;;;;2.13;1.20;;;5.50;86.30;;;;;;5032310;28;20198;-67
2022/02/23 06:46:47;;;;;;;3.22;1.30;;;5.40;86.90;;;;;;5032507;28;20194;-67
2022/02/23 06:49:14;;;;;;;4.25;1.70;;;5.40;87.50;;;;;;5029251;28;20228;-66
2022/02/23 06:51:44;;;;;;;2.90;1.88;;;5.40;87.30;;;;;;5027942;28;20187;-67
2022/02/23 06:54:11;;;;;;;3.40;1.92;;;5.40;87.60;;;;;;5028411;28;20183;-67
2022/02/23 06:56:38;;;;;;;7.35;3.17;;;5.40;88.00;;;;;;5028373;28;20195;-67
2022/02/23 06:59:06;;;;;;;4.60;2.40;;;5.50;87.70;;;;;;5030123;28;20586;-69
2022/02/23 07:01:34;;;;;;;5.20;1.98;;;5.50;87.30;;;;;;5020060;28;20184;-67
2022/02/23 07:04:02;;;;;;;4.40;2.55;;;5.60;86.90;;;;;;5032935;28;20198;-67
2022/02/23 07:06:29;;;;;;;7.95;3.70;;;5.60;87.70;;;;;;5032299;28;20242;-68
2022/02/23 07:08:57;;;;;;;3.88;2.20;;;5.70;86.70;;;;;;5031785;28;20434;-68
2022/02/23 07:11:25;;;;;;;8.93;2.88;;;5.60;86.60;;;;;;5025919;28;20187;-67
2022/02/23 07:13:53;;;;;;;5.90;3.28;;;5.60;86.60;;;;;;5030620;28;20273;-67
2022/02/23 07:16:23;;;;;;;7.00;3.22;;;5.60;87.20;;;;;;5032926;28;20195;-67
2022/02/23 07:18:50;;;;;;;2.90;1.80;;;5.60;87.70;;;;;;5027966;28;20181;-68
2022/02/23 07:21:17;;;;;;;6.03;1.60;;;5.70;88.50;;;;;;5025015;28;20249;-66
2022/02/23 07:23:44;;;;;;;5.35;1.50;;;5.70;89.00;;;;;;5033058;28;20191;-67
2022/02/23 07:26:14;;;;;;;3.30;1.45;;;5.70;89.50;;;;;;5031587;28;20191;-67
2022/02/23 07:28:41;;;;;;;2.80;0.93;;;5.70;88.90;;;;;;5024181;28;20223;-68
2022/02/23 07:31:09;;;;;;;2.45;1.20;;;5.80;89.10;;;;;;5032245;28;20234;-67
2022/02/23 07:33:36;;;;;;;2.42;1.20;;;5.80;89.10;;;;;;5033055;28;20696;-67
2022/02/23 07:36:04;;;;;;;3.17;1.75;;;5.80;88.90;;;;;;5029183;28;20195;-67
2022/02/23 07:38:31;;;;;;;3.25;1.85;;;5.90;88.50;;;;;;5029904;28;20288;-68
2022/02/23 07:40:58;;;;;;;5.85;2.05;;;5.90;88.20;;;;;;5034408;28;20621;-67
2022/02/23 07:43:27;;;;;;;3.17;1.67;;;5.90;89.00;;;;;;5034415;28;20237;-67
2022/02/23 07:45:54;;;;;;;4.47;2.35;;;6.00;89.00;;;;;;5034240;28;20284;-67
2022/02/23 07:48:21;;;;;;;5.65;1.60;;;6.00;89.10;;;;;;5033918;28;20250;-67
2022/02/23 07:50:47;;;;;;;2.40;1.30;;;6.10;89.00;;;;;;5034772;28;20226;-67
2022/02/23 07:53:14;;;;;;;3.58;1.67;;;6.10;88.20;;;;;;5034557;28;20218;-67
2022/02/23 07:55:42;;;;;;;4.05;2.03;;;6.20;88.30;;;;;;5034691;28;20234;-67
2022/02/23 07:58:09;;;;;;;3.47;1.65;;;6.20;88.70;;;;;;5034209;28;20195;-67
2022/02/23 08:00:39;;;;;;;5.70;4.18;;;6.30;88.20;;;;;;5034108;28;20226;-67
2022/02/23 08:03:06;;;;;;;6.03;4.05;;;6.30;88.30;;;;;;5034165;28;20199;-67
2022/02/23 08:05:33;;;;;;;4.13;1.95;;;6.30;88.70;;;;;;5034134;28;20219;-67
2022/02/23 08:08:00;;;;;;;3.88;1.90;;;6.30;88.40;;;;;;5034109;28;20281;-67
2022/02/23 08:10:27;;;;;;;24.92;10.15;;;6.40;88.60;;;;;;5034075;28;20234;-67
2022/02/23 08:12:58;;;;;;;4.43;1.83;;;6.50;87.70;;;;;;5033797;28;20767;-67
2022/02/23 08:21:02;;;;;;;6.57;2.40;;;6.50;88.80;;;;;;4977644;28;20190;-67
2022/02/23 08:23:29;;;;;;;5.85;2.88;;;6.60;89.00;;;;;;5034050;28;20202;-67
2022/02/23 08:25:55;;;;;;;6.85;2.92;;;6.80;89.40;;;;;;5034173;28;20256;-67
2022/02/23 08:28:22;;;;;;;5.40;2.17;;;7.00;88.80;;;;;;5034082;28;20599;-68
2022/02/23 08:30:49;;;;;;;2.88;1.75;;;7.10;88.10;;;;;;5033699;28;20218;-68
2022/02/23 08:33:18;;;;;;;7.00;1.77;;;7.20;86.50;;;;;;5033891;28;20288;-68
2022/02/23 08:35:45;;;;;;;3.22;1.83;;;7.30;85.40;;;;;;5033914;28;20600;-67
2022/02/23 08:38:12;;;;;;;2.60;1.80;;;7.30;86.00;;;;;;5033809;28;20268;-67
2022/02/23 08:40:41;;;;;;;2.55;1.55;;;7.30;86.00;;;;;;5033704;28;20234;-68
2022/02/23 08:43:08;;;;;;;5.93;1.70;;;7.40;85.30;;;;;;5033757;28;20199;-67
2022/02/23 08:45:36;;;;;;;4.63;2.08;;;7.30;84.00;;;;;;5033067;28;20195;-67
2022/02/23 08:48:03;;;;;;;4.15;1.40;;;7.30;85.10;;;;;;5033414;28;20253;-67
2022/02/23 08:50:32;;;;;;;3.72;1.00;;;7.40;85.20;;;;;;5033631;28;20187;-68
2022/02/23 08:52:59;;;;;;;4.18;1.52;;;7.60;85.10;;;;;;5033639;28;20219;-68
2022/02/23 08:55:26;;;;;;;7.63;1.67;;;7.90;85.60;;;;;;5033043;28;20195;-68
2022/02/23 08:57:53;;;;;;;3.10;1.38;;;8.70;86.70;;;;;;5032602;28;20194;-68
2022/02/23 09:00:21;;;;;;;4.38;1.55;;;9.50;76.40;;;;;;5032739;28;20293;-68
2022/02/23 09:02:48;;;;;;;6.93;2.30;;;9.80;75.60;;;;;;5033558;28;20249;-68
2022/02/23 09:05:15;;;;;;;5.85;1.60;;;9.70;71.50;;;;;;5032864;28;20696;-68
2022/02/23 09:07:43;;;;;;;3.03;1.20;;;9.60;72.20;;;;;;5033353;28;20278;-67
2022/02/23 09:10:10;;;;;;;2.67;1.10;;;9.50;71.80;;;;;;5033385;28;20195;-68
2022/02/23 09:12:37;;;;;;;2.67;1.30;;;9.40;72.60;;;;;;5032873;28;20249;-68
2022/02/23 09:15:06;;;;;;;2.50;1.10;;;9.30;72.30;;;;;;5033265;28;20651;-68
2022/02/23 09:17:33;;;;;;;3.80;1.60;;;9.20;73.60;;;;;;5033454;28;20202;-68
2022/02/23 09:19:59;;;;;;;9.43;1.35;;;9.20;73.50;;;;;;5033207;28;20245;-68
2022/02/23 09:22:27;;;;;;;3.95;1.10;;;9.30;73.80;;;;;;5033123;28;20226;-69
2022/02/23 09:24:55;;;;;;;2.83;1.20;;;9.40;71.90;;;;;;5032738;28;20314;-68
2022/02/23 09:27:35;;;;;;;5.82;1.60;;;9.50;73.90;;;;;;5033154;28;20227;-69
2022/02/23 09:30:03;;;;;;;3.30;1.45;;;9.70;72.60;;;;;;5032799;28;20222;-68
2022/02/23 09:32:29;;;;;;;4.18;1.33;;;10.00;71.90;;;;;;5033199;28;20190;-68
2022/02/23 09:34:56;;;;;;;4.00;1.20;;;10.20;69.90;;;;;;5033242;28;20195;-68
2022/02/23 09:37:23;;;;;;;5.30;2.10;;;10.20;67.70;;;;;;5033061;28;20249;-68
2022/02/23 09:39:50;;;;;;;4.22;1.55;;;10.10;68.10;;;;;;5033183;28;20279;-68
2022/02/23 09:42:19;;;;;;;3.08;1.25;;;10.00;69.60;;;;;;5032996;28;20195;-68
2022/02/23 09:44:46;;;;;;;4.78;1.52;;;9.90;73.20;;;;;;5032897;28;20280;-68
2022/02/23 09:47:16;;;;;;;5.15;1.25;;;10.20;73.00;;;;;;5033055;28;20195;-68
2022/02/23 09:49:44;;;;;;;2.40;1.20;;;11.40;74.20;;;;;;5032706;28;20223;-69
2022/02/23 09:52:12;;;;;;;3.08;1.30;;;14.90;65.10;;;;;;5032359;28;20195;-68
2022/02/23 09:54:39;;;;;;;3.23;1.30;;;16.80;55.60;;;;;;5032804;28;20260;-68
2022/02/23 09:57:06;;;;;;;5.97;2.43;;;16.80;46.90;;;;;;5032762;28;20473;-70
2022/02/23 09:59:34;;;;;;;6.53;2.20;;;16.20;47.10;;;;;;5032414;28;21004;-68
2022/02/23 10:02:03;;;;;;;2.90;1.10;;;16.00;49.20;;;;;;5032731;28;20440;-69
2022/02/23 10:04:30;;;;;;;2.83;1.20;;;15.80;47.40;;;;;;5032698;28;20450;-68
2022/02/23 10:07:04;;;;;;;6.97;3.07;;;15.70;47.50;;;;;;5032785;28;20442;-68
2022/02/23 10:09:41;;;;;;;4.50;1.50;;;15.60;48.50;;;;;;5033234;28;20492;-68
2022/02/23 10:12:09;;;;;;;5.10;1.30;;;15.40;48.90;;;;;;5036388;28;21043;-68
2022/02/23 10:14:37;;;;;;;5.43;1.37;;;15.10;47.20;;;;;;5036049;28;20509;-68
2022/02/23 10:17:04;;;;;;;5.83;1.87;;;14.80;48.20;;;;;;5036318;28;20477;-68
2022/02/23 10:19:33;;;;;;;2.53;1.30;;;14.60;47.40;;;;;;5036035;28;20446;-68
2022/02/23 10:22:01;;;;;;;3.30;1.90;;;14.50;48.10;;;;;;5036669;28;20438;-68
2022/02/23 10:24:32;;;;;;;4.97;1.20;;;14.50;48.90;;;;;;5036263;28;20445;-68
2022/02/23 10:27:05;;;;;;;4.03;1.43;;;15.00;49.50;;;;;;5036391;28;20437;-68
2022/02/23 10:29:37;;;;;;;3.10;1.20;;;16.20;47.20;;;;;;5036022;28;20496;-68
2022/02/23 10:32:10;;;;;;;6.07;1.10;;;17.60;45.80;;;;;;5036188;28;20477;-69
2022/02/23 10:34:44;;;;;;;9.80;7.50;;;18.60;40.90;;;;;;5035997;28;20477;-68
2022/02/23 10:37:12;;;;;;;16.20;12.10;;;19.80;41.30;;;;;;5036075;28;20480;-68
2022/02/23 10:39:42;;;;;;;4.00;1.80;;;21.50;38.20;;;;;;5035736;28;20441;-69
2022/02/23 10:42:10;;;;;;;2.20;0.97;;;24.00;31.60;;;;;;5035967;28;20449;-68
2022/02/23 10:44:40;;;;;;;3.40;1.00;;;24.80;31.80;;;;;;5035951;28;20445;-68
2022/02/23 10:47:13;;;;;;;1.90;0.70;;;28.00;29.30;;;;;;5035577;28;20492;-70
2022/02/23 10:49:39;;;;;;;3.50;0.80;;;29.20;21.70;;;;;;5035624;28;21014;-68
2022/02/23 10:52:09;;;;;;;2.77;0.90;;;28.10;22.00;;;;;;5035853;28;20504;-69
2022/02/23 10:54:37;;;;;;;2.30;0.90;;;28.70;21.70;;;;;;5035780;28;20471;-69
2022/02/23 10:57:22;;;;;;;3.37;0.93;;;30.50;20.70;;;;;;5035767;28;20441;-69
2022/02/23 10:59:52;;;;;;;3.67;1.40;;;32.30;18.30;;;;;;5035765;28;20430;-69
2022/02/23 11:02:20;;;;;;;3.73;1.10;;;34.10;16.70;;;;;;5035516;28;20812;-70
2022/02/23 11:04:49;;;;;;;3.03;1.13;;;35.90;17.10;;;;;;5035289;28;20507;-70
2022/02/23 11:07:16;;;;;;;4.40;1.20;;;37.30;13.90;;;;;;5035343;28;21002;-68
2022/02/23 11:09:43;;;;;;;2.30;0.73;;;38.00;13.90;;;;;;5035439;28;20543;-68
2022/02/23 11:12:11;;;;;;;3.33;1.10;;;38.90;13.30;;;;;;5035197;28;20464;-67
2022/02/23 11:14:39;;;;;;;3.10;1.10;;;40.40;13.80;;;;;;5034921;28;20556;-68
2022/02/23 11:17:07;;;;;;;4.03;1.10;;;41.40;10.50;;;;;;5035106;28;20445;-68
2022/02/23 11:19:38;;;;;;;2.60;1.10;;;41.80;10.20;;;;;;5035146;28;20813;-68
2022/02/23 11:22:06;;;;;;;4.20;0.93;;;41.80;9.30;;;;;;5034391;28;20450;-68
2022/02/23 11:24:33;;;;;;;3.17;0.90;;;42.00;10.60;;;;;;5035149;28;20843;-68
2022/02/23 11:27:07;;;;;;;3.30;1.03;;;42.40;10.20;;;;;;5034982;28;20473;-69
2022/02/23 11:29:40;;;;;;;2.60;1.10;;;42.80;9.50;;;;;;5034636;28;20492;-69
2022/02/23 11:32:08;;;;;;;3.43;1.50;;;43.10;8.90;;;;;;5034904;28;20978;-68
2022/02/23 11:34:40;;;;;;;4.00;1.00;;;43.10;9.40;;;;;;5034591;28;20434;-68
2022/02/23 11:37:12;;;;;;;4.07;0.97;;;43.70;7.90;;;;;;5034699;28;20445;-68
2022/02/23 11:39:40;;;;;;;2.70;1.10;;;43.50;7.90;;;;;;5034787;28;20835;-68
2022/02/23 11:42:10;;;;;;;2.40;1.00;;;43.30;8.00;;;;;;5034853;28;20504;-68
2022/02/23 11:44:46;;;;;;;3.10;1.00;;;43.30;8.30;;;;;;5034400;28;20433;-68
2022/02/23 11:47:16;;;;;;;3.77;1.10;;;43.70;8.60;;;;;;5034756;28;20473;-68
2022/02/23 11:49:53;;;;;;;2.80;1.00;;;44.20;8.30;;;;;;5034636;28;20442;-68
2022/02/23 11:52:21;;;;;;;2.97;1.00;;;44.60;7.90;;;;;;5034193;28;20480;-68
2022/02/23 11:54:54;;;;;;;3.17;1.40;;;44.60;7.00;;;;;;5034616;28;20476;-68
2022/02/23 11:57:58;;;;;;;2.47;1.00;;;44.60;8.50;;;;;;5028422;28;20434;-68
2022/02/23 12:00:56;;;;;;;2.07;0.83;;;44.70;7.10;;;;;;4953096;29;20572;-68
2022/02/23 12:03:26;;;;;;;2.67;1.03;;;44.00;7.50;;;;;;4953260;29;20525;-68
2022/02/23 12:05:59;;;;;;;2.83;1.00;;;44.00;7.10;;;;;;4996315;28;20517;-68
2022/02/23 12:08:43;;;;;;;2.40;1.07;;;43.40;6.80;;;;;;5014536;28;20451;-68
2022/02/23 12:11:40;;;;;;;3.07;1.10;;;42.70;7.40;;;;;;5016819;28;20533;-68
2022/02/23 12:14:07;;;;;;;3.17;1.10;;;42.70;7.40;;;;;;5026397;28;20466;-68
2022/02/23 12:16:47;;;;;;;3.53;1.00;;;42.30;7.80;;;;;;5027942;28;20478;-68
2022/02/23 12:19:15;;;;;;;1.90;0.80;;;42.10;7.50;;;;;;5023119;28;20545;-68
2022/02/23 12:21:45;;;;;;;3.13;1.10;;;41.90;8.20;;;;;;5027688;28;20443;-67
2022/02/23 12:24:15;;;;;;;3.23;1.10;;;42.00;7.70;;;;;;5017016;28;20444;-68
2022/02/23 12:26:43;;;;;;;2.50;0.83;;;41.60;7.70;;;;;;5013931;28;20538;-67
2022/02/23 12:29:11;;;;;;;2.03;0.70;;;41.40;7.50;;;;;;5014124;28;20478;-68
2022/02/23 12:31:44;;;;;;;3.77;1.00;;;41.30;7.80;;;;;;5013572;28;20771;-67
2022/02/23 12:34:15;;;;;;;4.80;1.30;;;41.00;8.60;;;;;;5014595;28;20465;-68
2022/02/23 12:36:48;;;;;;;1.90;0.80;;;41.10;8.10;;;;;;5024814;28;20438;-68
2022/02/23 12:39:18;;;;;;;2.37;1.10;;;41.10;8.10;;;;;;5031282;28;20470;-68
2022/02/23 12:41:48;;;;;;;2.53;1.00;;;41.20;8.50;;;;;;5013517;28;20755;-68
2022/02/23 12:44:19;;;;;;;3.23;1.43;;;41.50;7.90;;;;;;5026343;28;20433;-68
2022/02/23 12:46:47;;;;;;;4.43;2.50;;;41.40;8.70;;;;;;5031351;28;20565;-68
2022/02/23 12:49:20;;;;;;;6.27;4.27;;;41.80;8.50;;;;;;5023451;28;20473;-68
2022/02/23 12:51:49;;;;;;;6.20;3.77;;;41.30;7.90;;;;;;5013490;28;20477;-68
2022/02/23 12:54:18;;;;;;;5.80;3.90;;;41.30;8.80;;;;;;5028661;28;20445;-77
2022/02/23 12:56:47;;;;;;;3.47;1.90;;;41.40;8.10;;;;;;5026003;28;20821;-68
2022/02/23 12:59:16;;;;;;;6.00;2.60;;;40.80;8.00;;;;;;5013348;28;20470;-68
2022/02/23 13:01:44;;;;;;;8.57;6.03;;;39.60;8.20;;;;;;5015933;28;20461;-68
2022/02/23 13:04:13;;;;;;;5.17;1.90;;;39.40;8.70;;;;;;5032408;28;20449;-68
2022/02/23 13:06:45;;;;;;;2.47;0.87;;;38.80;9.10;;;;;;5015470;28;20457;-67
2022/02/23 13:09:16;;;;;;;2.10;1.20;;;38.50;9.60;;;;;;5025481;28;20438;-68
2022/02/23 13:11:47;;;;;;;2.77;1.10;;;38.80;9.60;;;;;;5015775;28;20457;-68